createdAt,value
2019-04-14T00:01:39.750Z,56.26
2019-04-14T00:04:18.207Z,56.15
2019-04-14T00:06:44.171Z,56.09
2019-04-14T00:09:11.879Z,56.09
2019-04-14T00:11:38.689Z,56.17
2019-04-14T00:14:03.250Z,56.19
2019-04-14T00:16:27.777Z,56.36
2019-04-14T00:18:53.310Z,56.03
2019-04-14T00:21:17.777Z,56.37
2019-04-14T00:23:43.375Z,55.99
2019-04-14T00:26:29.565Z,55.48
2019-04-14T00:28:54.117Z,56.19
2019-04-14T00:31:19.483Z,57.10
2019-04-14T00:33:43.916Z,56.84
2019-04-14T00:36:15.954Z,56.12
2019-04-14T00:38:42.017Z,55.86
2019-04-14T00:41:11.587Z,56.40
2019-04-14T00:43:47.073Z,55.93
2019-04-14T00:46:23.221Z,56.05
2019-04-14T00:48:49.681Z,56.31
2019-04-14T00:51:15.486Z,56.23
2019-04-14T00:53:40.323Z,56.33
2019-04-14T00:56:06.097Z,56.43
2019-04-14T00:58:30.657Z,56.45
2019-04-14T01:00:55.835Z,56.33
2019-04-14T01:03:20.383Z,56.52
2019-04-14T01:05:45.912Z,56.59
2019-04-14T01:08:10.403Z,56.41
2019-04-14T01:10:34.897Z,56.67
2019-04-14T01:13:00.525Z,56.69
2019-04-14T01:15:25.193Z,56.93
2019-04-14T01:17:50.654Z,57.08
2019-04-14T01:20:16.635Z,57.31
2019-04-14T01:22:42.330Z,57.36
2019-04-14T01:25:08.625Z,57.27
2019-04-14T01:27:34.204Z,57.59
2019-04-14T01:29:58.669Z,57.31
2019-04-14T01:32:24.065Z,57.50
2019-04-14T01:34:52.103Z,57.46
2019-04-14T01:37:16.124Z,57.40
2019-04-14T01:39:41.461Z,57.63
2019-04-14T01:42:07.075Z,57.81
2019-04-14T01:44:31.555Z,57.75
2019-04-14T01:46:56.604Z,57.98
2019-04-14T01:49:21.122Z,58.08
2019-04-14T01:52:03.665Z,57.95
2019-04-14T01:54:47.258Z,58.70
2019-04-14T01:57:13.441Z,58.09
2019-04-14T01:59:39.119Z,58.40
2019-04-14T02:02:05.345Z,58.62
2019-04-14T02:04:29.764Z,58.69
2019-04-14T02:06:55.195Z,58.55
2019-04-14T02:09:20.849Z,58.83
2019-04-14T02:11:46.542Z,58.76
2019-04-14T02:14:12.294Z,58.77
2019-04-14T02:16:41.888Z,58.74
2019-04-14T02:19:04.509Z,58.79
2019-04-14T02:21:30.243Z,59.02
2019-04-14T02:23:56.136Z,58.61
2019-04-14T02:26:21.916Z,58.90
2019-04-14T02:28:46.582Z,58.93
2019-04-14T02:31:24.267Z,59.05
2019-04-14T02:33:58.458Z,59.56
2019-04-14T02:36:32.190Z,59.22
2019-04-14T02:38:57.199Z,59.11
2019-04-14T02:41:31.531Z,59.42
2019-04-14T02:43:48.213Z,59.66
2019-04-14T02:46:13.234Z,59.64
2019-04-14T02:49:08.254Z,59.80
2019-04-14T02:51:26.890Z,60.28
2019-04-14T02:53:59.245Z,59.98
2019-04-14T02:56:27.997Z,59.98
2019-04-14T03:03:54.354Z,60.18
2019-04-14T03:06:18.415Z,60.30
2019-04-14T03:08:52.006Z,60.22
2019-04-14T03:11:09.647Z,60.16
2019-04-14T03:13:45.876Z,60.36
2019-04-14T03:16:01.710Z,60.58
2019-04-14T03:18:37.840Z,60.21
2019-04-14T03:21:19.487Z,60.20
2019-04-14T03:23:48.893Z,60.10
2019-04-14T03:26:25.376Z,60.44
2019-04-14T03:28:51.736Z,60.51
2019-04-14T03:34:16.814Z,60.27
2019-04-14T03:37:04.752Z,60.50
2019-04-14T03:38:50.419Z,60.78
2019-04-14T03:41:20.494Z,60.62
2019-04-14T03:43:39.267Z,60.79
2019-04-14T03:50:56.526Z,60.84
2019-04-14T03:53:22.022Z,61.06
2019-04-14T03:55:54.534Z,61.25
2019-04-14T03:58:13.509Z,61.96
2019-04-14T04:00:39.976Z,61.85
2019-04-14T04:03:04.493Z,61.77
2019-04-14T04:05:30.210Z,61.67
2019-04-14T04:07:55.960Z,61.73
2019-04-14T04:10:21.131Z,62.00
2019-04-14T04:12:46.545Z,62.03
2019-04-14T04:15:12.498Z,61.77
2019-04-14T04:17:38.787Z,62.18
2019-04-14T04:20:23.995Z,62.23
2019-04-14T04:22:50.092Z,62.02
2019-04-14T04:25:16.215Z,62.40
2019-04-14T04:27:54.774Z,62.29
2019-04-14T04:30:32.457Z,62.23
2019-04-14T04:33:08.617Z,62.59
2019-04-14T04:35:37.819Z,62.97
2019-04-14T04:38:22.433Z,62.55
2019-04-14T04:40:46.846Z,62.58
2019-04-14T04:43:12.474Z,62.48
2019-04-14T04:45:36.959Z,62.86
2019-04-14T04:48:02.412Z,62.98
2019-04-14T04:50:28.164Z,62.97
2019-04-14T04:52:53.919Z,62.77
2019-04-14T04:55:18.391Z,62.72
2019-04-14T04:57:43.808Z,62.72
2019-04-14T05:00:09.211Z,62.58
2019-04-14T05:02:33.868Z,62.59
2019-04-14T05:04:59.102Z,62.54
2019-04-14T05:07:23.569Z,63.55
2019-04-14T05:09:51.206Z,62.65
2019-04-14T05:12:32.783Z,62.19
2019-04-14T05:15:01.552Z,62.45
2019-04-14T05:17:30.335Z,62.33
2019-04-14T05:19:54.752Z,62.62
2019-04-14T05:22:20.737Z,62.55
2019-04-14T05:24:46.142Z,62.72
2019-04-14T05:27:10.764Z,62.67
2019-04-14T05:29:36.433Z,62.91
2019-04-14T05:32:02.296Z,62.66
2019-04-14T05:34:26.831Z,62.96
2019-04-14T05:36:52.153Z,63.13
2019-04-14T05:39:17.725Z,63.98
2019-04-14T05:41:55.904Z,63.67
2019-04-14T05:44:08.390Z,63.17
2019-04-14T05:46:33.865Z,63.31
2019-04-14T05:48:59.998Z,63.39
2019-04-14T05:51:24.866Z,62.90
2019-04-14T05:53:50.230Z,62.81
2019-04-14T05:56:14.735Z,62.79
2019-04-14T05:58:40.327Z,62.91
2019-04-14T06:01:04.952Z,62.90
2019-04-14T06:03:29.944Z,63.35
2019-04-14T06:05:54.390Z,63.52
2019-04-14T06:08:18.837Z,64.46
2019-04-14T06:10:44.998Z,63.87
2019-04-14T06:13:11.712Z,63.84
2019-04-14T06:15:36.079Z,64.49
2019-04-14T06:18:00.488Z,63.53
2019-04-14T06:20:25.076Z,63.42
2019-04-14T06:22:49.496Z,63.81
2019-04-14T06:25:14.083Z,63.64
2019-04-14T06:27:38.494Z,64.23
2019-04-14T06:30:05.221Z,63.35
2019-04-14T06:32:40.214Z,65.12
2019-04-14T06:35:12.708Z,65.12
2019-04-14T06:37:38.763Z,64.39
2019-04-14T06:40:07.893Z,64.06
2019-04-14T06:42:32.309Z,63.10
2019-04-14T06:44:56.752Z,63.15
2019-04-14T06:47:21.168Z,62.92
2019-04-14T06:49:49.064Z,63.11
2019-04-14T06:52:11.796Z,63.53
2019-04-14T06:54:36.251Z,63.08
2019-04-14T06:57:00.677Z,62.53
2019-04-14T06:59:25.138Z,62.90
2019-04-14T07:01:49.575Z,63.30
2019-04-14T07:04:14.028Z,62.12
2019-04-14T07:06:38.448Z,62.97
2019-04-14T07:09:03.435Z,63.03
2019-04-14T07:11:27.858Z,62.68
2019-04-14T07:13:52.272Z,62.29
2019-04-14T07:16:16.794Z,63.10
2019-04-14T07:18:41.215Z,62.76
2019-04-14T07:21:05.660Z,62.39
2019-04-14T07:23:30.076Z,61.16
2019-04-14T07:25:54.518Z,61.26
2019-04-14T07:28:18.943Z,61.62
2019-04-14T07:30:45.020Z,61.83
2019-04-14T07:33:20.217Z,61.86
2019-04-14T07:36:01.084Z,61.47
2019-04-14T07:38:34.483Z,61.70
2019-04-14T07:41:00.632Z,62.23
2019-04-14T07:43:42.571Z,61.58
2019-04-14T07:46:26.712Z,60.67
2019-04-14T07:48:52.769Z,61.91
2019-04-14T07:51:31.061Z,62.36
2019-04-14T07:53:57.224Z,61.95
2019-04-14T07:56:23.301Z,61.42
2019-04-14T07:59:05.558Z,61.42
2019-04-14T08:01:31.631Z,61.05
2019-04-14T08:03:57.693Z,60.67
2019-04-14T08:06:22.123Z,61.19
2019-04-14T08:08:46.525Z,61.41
2019-04-14T08:11:11.017Z,60.62
2019-04-14T08:13:35.509Z,59.90
2019-04-14T08:15:59.950Z,60.81
2019-04-14T08:18:24.346Z,60.91
2019-04-14T08:20:48.785Z,60.59
2019-04-14T08:23:13.270Z,61.21
2019-04-14T08:25:37.715Z,60.96
2019-04-14T08:28:02.195Z,60.47
2019-04-14T08:30:26.672Z,60.92
2019-04-14T08:32:51.104Z,60.91
2019-04-14T08:35:15.528Z,60.96
2019-04-14T08:37:39.940Z,61.53
2019-04-14T08:40:05.191Z,60.78
2019-04-14T08:42:47.620Z,60.57
2019-04-14T08:45:13.807Z,60.24
2019-04-14T08:47:52.173Z,61.15
2019-04-14T08:50:18.179Z,60.70
2019-04-14T08:52:56.161Z,59.89
2019-04-14T08:55:24.963Z,60.09
2019-04-14T08:58:09.512Z,60.18
2019-04-14T09:00:41.414Z,59.73
2019-04-14T09:03:19.394Z,60.19
2019-04-14T09:05:45.510Z,59.84
2019-04-14T09:08:17.533Z,59.92
2019-04-14T09:10:58.812Z,59.37
2019-04-14T09:13:23.246Z,59.73
2019-04-14T09:15:47.671Z,59.08
2019-04-14T09:18:12.129Z,59.78
2019-04-14T09:20:36.528Z,59.54
2019-04-14T09:23:00.984Z,58.57
2019-04-14T09:25:25.451Z,58.75
2019-04-14T09:27:49.900Z,58.77
2019-04-14T09:30:15.119Z,59.02
2019-04-14T09:32:39.613Z,59.09
2019-04-14T09:35:04.784Z,58.79
2019-04-14T09:37:29.228Z,59.38
2019-04-14T09:39:53.651Z,60.03
2019-04-14T09:42:18.086Z,60.57
2019-04-14T09:44:42.496Z,60.18
2019-04-14T09:47:06.982Z,59.63
2019-04-14T09:49:31.427Z,59.45
2019-04-14T09:51:55.906Z,58.93
2019-04-14T09:54:20.443Z,58.79
2019-04-14T09:56:44.859Z,60.16
2019-04-14T09:59:09.366Z,60.47
2019-04-14T10:01:33.781Z,60.68
2019-04-14T10:03:58.224Z,61.28
2019-04-14T10:06:22.632Z,61.09
2019-04-14T10:08:47.082Z,62.59
2019-04-14T10:11:11.502Z,62.32
2019-04-14T10:13:35.942Z,61.84
2019-04-14T10:16:00.363Z,61.50
2019-04-14T10:18:24.808Z,62.44
2019-04-14T10:20:49.233Z,63.23
2019-04-14T10:23:13.673Z,64.78
2019-04-14T10:25:38.065Z,65.57
2019-04-14T10:28:02.505Z,64.93
2019-04-14T10:30:26.916Z,63.41
2019-04-14T10:32:51.341Z,64.11
2019-04-14T10:35:15.867Z,65.02
2019-04-14T10:37:41.501Z,65.99
2019-04-14T10:40:06.484Z,64.65
2019-04-14T10:42:30.906Z,64.98
2019-04-14T10:44:55.353Z,65.97
2019-04-14T10:47:22.848Z,64.80
2019-04-14T10:49:47.447Z,64.15
2019-04-14T10:52:11.865Z,65.45
2019-04-14T10:54:36.318Z,64.10
2019-04-14T10:57:01.197Z,64.92
2019-04-14T10:59:25.853Z,65.01
2019-04-14T11:01:50.241Z,65.87
2019-04-14T11:04:14.751Z,65.20
2019-04-14T11:06:49.852Z,64.93
2019-04-14T11:09:17.128Z,66.40
2019-04-14T11:11:41.682Z,66.82
2019-04-14T11:14:06.175Z,65.37
2019-04-14T11:16:30.611Z,66.05
2019-04-14T11:18:55.024Z,65.79
2019-04-14T11:21:19.454Z,66.44
2019-04-14T11:23:46.863Z,66.90
2019-04-14T11:26:11.390Z,65.84
2019-04-14T11:28:35.811Z,67.09
2019-04-14T11:31:00.335Z,66.42
2019-04-14T11:33:26.440Z,67.61
2019-04-14T11:35:54.965Z,66.87
2019-04-14T11:38:37.057Z,66.53
2019-04-14T11:41:03.151Z,66.44
2019-04-14T11:43:27.647Z,66.37
2019-04-14T11:45:52.150Z,66.33
2019-04-14T11:48:16.696Z,65.18
2019-04-14T11:50:41.213Z,65.42
2019-04-14T11:53:05.786Z,65.80
2019-04-14T11:55:30.319Z,65.00
2019-04-14T11:57:54.739Z,66.48
2019-04-14T12:00:20.849Z,66.61
2019-04-14T12:02:56.028Z,65.64
2019-04-14T12:05:27.931Z,67.01
2019-04-14T12:08:01.417Z,66.30
2019-04-14T12:10:25.895Z,66.20
2019-04-14T12:12:50.404Z,66.14
2019-04-14T12:15:16.586Z,65.56
2019-04-14T12:17:42.429Z,65.83
2019-04-14T12:20:08.389Z,66.00
2019-04-14T12:22:32.839Z,65.94
2019-04-14T12:24:57.257Z,65.57
2019-04-14T12:27:21.758Z,65.62
2019-04-14T12:29:46.186Z,65.83
2019-04-14T12:32:12.759Z,67.08
2019-04-14T12:34:37.353Z,68.01
2019-04-14T12:37:01.942Z,67.94
2019-04-14T12:39:26.503Z,67.81
2019-04-14T12:41:52.821Z,67.49
2019-04-14T12:44:34.972Z,67.40
2019-04-14T12:47:10.357Z,66.87
2019-04-14T12:49:36.410Z,67.22
2019-04-14T12:52:02.499Z,67.42
2019-04-14T12:54:27.816Z,67.62
2019-04-14T12:56:52.282Z,66.31
2019-04-14T12:59:18.443Z,68.24
2019-04-14T13:01:50.540Z,67.48
2019-04-14T13:04:14.978Z,66.92
2019-04-14T13:06:39.486Z,66.27
2019-04-14T13:09:05.659Z,66.40
2019-04-14T13:11:30.072Z,66.70
2019-04-14T13:13:54.497Z,65.66
2019-04-14T13:16:18.920Z,65.15
2019-04-14T13:18:43.608Z,65.22
2019-04-14T13:21:08.087Z,65.68
2019-04-14T13:23:32.606Z,65.18
2019-04-14T13:25:57.081Z,66.45
2019-04-14T13:28:21.594Z,66.80
2019-04-14T13:30:47.397Z,67.35
2019-04-14T13:33:11.879Z,66.34
2019-04-14T13:35:36.399Z,65.48
2019-04-14T13:38:00.818Z,65.10
2019-04-14T13:40:25.332Z,64.54
2019-04-14T13:42:49.836Z,65.93
2019-04-14T13:45:14.373Z,66.46
2019-04-14T13:47:38.856Z,65.37
2019-04-14T13:50:05.167Z,65.54
2019-04-14T13:52:31.027Z,65.42
2019-04-14T13:54:55.988Z,66.13
2019-04-14T13:57:20.392Z,65.70
2019-04-14T13:59:44.840Z,66.30
2019-04-14T14:02:09.389Z,66.79
2019-04-14T14:04:33.832Z,65.72
2019-04-14T14:06:58.246Z,66.53
2019-04-14T14:09:22.752Z,65.33
2019-04-14T14:11:51.838Z,65.04
2019-04-14T14:14:20.894Z,66.59
2019-04-14T14:16:59.200Z,64.92
2019-04-14T14:19:25.269Z,64.83
2019-04-14T14:22:06.403Z,65.80
2019-04-14T14:24:32.464Z,65.48
2019-04-14T14:26:58.756Z,65.95
2019-04-14T14:29:23.343Z,65.71
2019-04-14T14:31:47.842Z,65.85
2019-04-14T14:34:12.252Z,65.36
2019-04-14T14:36:36.693Z,65.02
2019-04-14T14:39:01.121Z,64.74
2019-04-14T14:41:25.628Z,65.46
2019-04-14T14:43:50.076Z,66.44
2019-04-14T14:46:16.293Z,64.95
2019-04-14T14:48:42.364Z,65.74
2019-04-14T14:51:08.510Z,65.60
2019-04-14T14:53:33.007Z,65.26
2019-04-14T14:55:57.448Z,65.81
2019-04-14T14:58:21.953Z,64.76
2019-04-14T15:00:46.632Z,65.57
2019-04-14T15:03:11.568Z,64.96
2019-04-14T15:05:36.026Z,64.59
2019-04-14T15:08:00.462Z,64.77
2019-04-14T15:10:25.091Z,64.31
2019-04-14T15:12:49.509Z,65.06
2019-04-14T15:15:14.090Z,64.37
2019-04-14T15:17:38.514Z,64.57
2019-04-14T15:20:03.311Z,64.71
2019-04-14T15:22:27.817Z,65.25
2019-04-14T15:24:52.229Z,65.64
2019-04-14T15:27:16.879Z,65.32
2019-04-14T15:29:41.433Z,65.65
2019-04-14T15:32:05.936Z,65.15
2019-04-14T15:34:30.434Z,65.11
2019-04-14T15:36:54.866Z,64.71
2019-04-14T15:39:19.366Z,64.67
2019-04-14T15:41:43.932Z,64.83
2019-04-14T15:44:08.353Z,64.78
2019-04-14T15:46:32.796Z,65.35
2019-04-14T15:48:57.205Z,66.29
2019-04-14T15:51:21.655Z,66.19
2019-04-14T15:53:46.156Z,64.73
2019-04-14T15:56:12.304Z,65.01
2019-04-14T15:58:44.579Z,65.88
2019-04-14T16:01:22.482Z,66.73
2019-04-14T16:03:51.571Z,65.70
2019-04-14T16:06:26.387Z,66.53
2019-04-14T16:08:55.127Z,65.70
2019-04-14T16:11:21.260Z,66.44
2019-04-14T16:13:50.353Z,66.33
2019-04-14T16:16:43.357Z,66.14
2019-04-14T16:19:12.290Z,66.10
2019-04-14T16:21:36.777Z,66.13
2019-04-14T16:24:01.235Z,66.55
2019-04-14T16:26:27.364Z,66.65
2019-04-14T16:28:53.442Z,66.21
2019-04-14T16:31:35.406Z,66.68
2019-04-14T16:34:13.393Z,66.40
2019-04-14T16:36:37.905Z,66.47
2019-04-14T16:39:02.339Z,66.80
2019-04-14T16:41:26.829Z,66.01
2019-04-14T16:43:51.273Z,65.69
2019-04-14T16:46:15.694Z,65.76
2019-04-14T16:48:40.220Z,66.42
2019-04-14T16:51:05.912Z,66.34
2019-04-14T16:53:32.090Z,65.74
2019-04-14T16:56:14.470Z,66.13
2019-04-14T16:58:40.621Z,65.69
2019-04-14T17:01:12.991Z,65.32
2019-04-14T17:03:37.452Z,65.41
2019-04-14T17:06:01.933Z,66.53
2019-04-14T17:08:26.416Z,65.52
2019-04-14T17:10:50.999Z,66.45
2019-04-14T17:13:15.611Z,66.34
2019-04-14T17:15:58.098Z,66.66
2019-04-14T17:18:30.032Z,66.12
2019-04-14T17:21:02.049Z,65.69
2019-04-14T17:23:30.881Z,65.69
2019-04-14T17:25:57.022Z,64.86
2019-04-14T17:28:39.389Z,65.42
2019-04-14T17:31:14.638Z,65.12
2019-04-14T17:33:49.666Z,64.81
2019-04-14T17:36:18.225Z,64.50
2019-04-14T17:38:50.291Z,65.14
2019-04-14T17:41:32.718Z,64.78
2019-04-14T17:43:58.779Z,64.80
2019-04-14T17:46:27.397Z,64.78
2019-04-14T17:48:55.925Z,64.45
2019-04-14T17:51:38.380Z,64.33
2019-04-14T17:54:28.357Z,64.38
2019-04-14T17:56:56.129Z,64.03
2019-04-14T17:59:27.900Z,63.72
2019-04-14T18:01:53.996Z,63.45
2019-04-14T18:04:28.883Z,63.24
2019-04-14T18:06:54.983Z,63.42
2019-04-14T18:09:21.032Z,63.33
2019-04-14T18:12:05.522Z,63.06
2019-04-14T18:14:47.879Z,63.34
2019-04-14T18:17:14.041Z,63.63
2019-04-14T18:19:45.836Z,63.56
2019-04-14T18:22:10.292Z,63.65
2019-04-14T18:24:42.117Z,63.93
2019-04-14T18:27:01.768Z,63.81
2019-04-14T18:29:27.905Z,63.62
2019-04-14T18:32:03.047Z,64.35
2019-04-14T18:34:37.836Z,63.90
2019-04-14T18:37:13.020Z,63.66
2019-04-14T18:39:55.586Z,63.19
2019-04-14T18:42:30.823Z,63.63
2019-04-14T18:45:09.042Z,63.39
2019-04-14T18:47:35.156Z,63.24
2019-04-14T18:50:07.427Z,63.01
2019-04-14T18:52:48.537Z,63.19
2019-04-14T18:55:26.807Z,62.98
2019-04-14T18:58:04.824Z,63.10
2019-04-14T19:00:36.608Z,63.03
2019-04-14T19:03:01.125Z,63.01
2019-04-14T19:05:25.547Z,62.77
2019-04-14T19:07:50.007Z,62.82
2019-04-14T19:10:14.666Z,62.85
2019-04-14T19:12:40.768Z,62.96
2019-04-14T19:15:11.275Z,63.00
2019-04-14T19:17:43.255Z,62.91
2019-04-14T19:20:07.853Z,62.68
2019-04-14T19:22:32.294Z,62.35
2019-04-14T19:25:07.254Z,62.38
2019-04-14T19:27:22.886Z,62.05
2019-04-14T19:29:47.345Z,61.97
2019-04-14T19:32:11.931Z,61.91
2019-04-14T19:34:36.392Z,61.79
2019-04-14T19:37:00.814Z,61.45
2019-04-14T19:39:25.266Z,61.22
2019-04-14T19:41:49.682Z,61.86
2019-04-14T19:44:14.153Z,61.70
2019-04-14T19:46:38.592Z,61.39
2019-04-14T19:49:03.044Z,61.44
2019-04-14T19:51:27.475Z,61.46
2019-04-14T19:53:52.114Z,62.35
2019-04-14T19:56:16.666Z,61.61
2019-04-14T19:58:41.105Z,62.32
2019-04-14T20:01:07.147Z,61.87
2019-04-14T20:03:31.799Z,61.38
2019-04-14T20:05:56.272Z,61.34
2019-04-14T20:08:20.754Z,61.14
2019-04-14T20:10:45.268Z,60.76
2019-04-14T20:13:09.738Z,61.60
2019-04-14T20:15:52.220Z,61.05
2019-04-14T20:18:33.259Z,60.78
2019-04-14T20:21:11.469Z,61.04
2019-04-14T20:23:40.289Z,61.46
2019-04-14T20:26:09.312Z,61.31
2019-04-14T20:28:44.605Z,60.90
2019-04-14T20:31:27.063Z,61.12
2019-04-14T20:33:51.551Z,62.29
2019-04-14T20:36:16.006Z,61.00
2019-04-14T20:38:40.405Z,60.70
2019-04-14T20:41:04.982Z,60.58
2019-04-14T20:43:29.401Z,60.76
2019-04-14T20:45:54.038Z,60.78
2019-04-14T20:48:18.430Z,60.32
2019-04-14T20:50:42.884Z,60.41
2019-04-14T20:53:07.348Z,60.41
2019-04-14T20:55:31.783Z,60.06
2019-04-14T20:57:56.265Z,60.42
2019-04-14T21:00:21.012Z,60.15
2019-04-14T21:03:03.350Z,60.17
2019-04-14T21:05:29.449Z,60.66
2019-04-14T21:08:01.424Z,59.44
2019-04-14T21:10:30.241Z,59.15
2019-04-14T21:12:59.104Z,58.93
2019-04-14T21:15:40.404Z,58.47
2019-04-14T21:18:06.525Z,57.74
2019-04-14T21:20:32.729Z,58.39
2019-04-14T21:22:58.904Z,57.38
2019-04-14T21:25:27.805Z,57.14
2019-04-14T21:27:53.926Z,57.58
2019-04-14T21:30:29.188Z,57.25
2019-04-14T21:32:55.257Z,57.67
2019-04-14T21:35:37.923Z,56.80
2019-04-14T21:38:04.003Z,56.66
2019-04-14T21:40:48.093Z,57.23
2019-04-14T21:43:12.566Z,57.54
2019-04-14T21:45:37.061Z,57.61
2019-04-14T21:48:01.515Z,58.10
2019-04-14T21:50:25.994Z,57.51
2019-04-14T21:52:50.566Z,57.94
2019-04-14T21:55:15.200Z,57.55
2019-04-14T21:57:57.320Z,57.37
2019-04-14T22:00:32.194Z,58.33
2019-04-14T22:03:13.328Z,58.36
2019-04-14T22:05:55.501Z,58.02
2019-04-14T22:08:27.410Z,57.81
2019-04-14T22:10:53.477Z,58.60
2019-04-14T22:13:17.986Z,58.40
2019-04-14T22:15:42.500Z,58.35
2019-04-14T22:18:07.150Z,58.62
2019-04-14T22:20:31.813Z,58.89
2019-04-14T22:22:56.412Z,58.19
2019-04-14T22:25:20.861Z,58.05
2019-04-14T22:27:45.585Z,57.65
2019-04-14T22:30:10.447Z,58.08
2019-04-14T22:32:34.855Z,58.01
2019-04-14T22:34:59.579Z,58.09
2019-04-14T22:37:24.010Z,58.06
2019-04-14T22:39:48.513Z,58.15
2019-04-14T22:42:12.917Z,57.48
2019-04-14T22:44:37.373Z,58.00
2019-04-14T22:47:01.868Z,58.04
2019-04-14T22:49:26.298Z,57.45
2019-04-14T22:51:50.775Z,57.86
2019-04-14T22:54:15.216Z,56.76
2019-04-14T22:56:39.879Z,56.60
2019-04-14T22:59:04.383Z,56.60
2019-04-14T23:01:30.513Z,56.97
2019-04-14T23:03:59.393Z,56.20
2019-04-14T23:06:41.690Z,56.23
2019-04-14T23:09:09.005Z,56.20
2019-04-14T23:11:44.084Z,56.43
2019-04-14T23:14:10.230Z,55.92
2019-04-14T23:16:36.278Z,55.70
2019-04-14T23:19:02.429Z,55.87
2019-04-14T23:21:37.562Z,55.49
2019-04-14T23:24:18.873Z,55.95
2019-04-14T23:26:52.373Z,55.61
2019-04-14T23:29:09.677Z,56.08
2019-04-14T23:31:34.157Z,55.60
2019-04-14T23:33:58.633Z,55.56
2019-04-14T23:36:23.138Z,55.55
2019-04-14T23:38:56.314Z,55.48
2019-04-14T23:41:23.919Z,55.36
2019-04-14T23:43:48.399Z,55.90
2019-04-14T23:46:12.906Z,56.08
2019-04-14T23:48:37.370Z,55.37
2019-04-14T23:51:01.883Z,56.09
2019-04-14T23:53:26.299Z,55.37
2019-04-14T23:55:50.868Z,55.50
2019-04-14T23:58:15.354Z,55.34
